sensor_id;sensor_type;location;lat;lon;timestamp;pressure;altitude;pressure_sealevel;temperature;humidity
32320;BME280;19080;51.750;5.888;2023-01-29T00:01:55;102758.22;;;-1.39;100.00
32320;BME280;19080;51.750;5.888;2023-01-29T00:04:23;102725.72;;;-1.61;100.00
32320;BME280;19080;51.750;5.888;2023-01-29T00:06:49;102801.66;;;-1.29;100.00
32320;BME280;19080;51.750;5.888;2023-01-29T00:09:17;102716.69;;;-1.83;100.00
32320;BME280;19080;51.750;5.888;2023-01-29T00:11:43;102816.03;;;-1.24;100.00
32320;BME280;19080;51.750;5.888;2023-01-29T00:14:10;102824.34;;;-1.28;100.00
32320;BME280;19080;51.750;5.888;2023-01-29T00:16:37;102821.41;;;-1.22;100.00
32320;BME280;19080;51.750;5.888;2023-01-29T00:19:04;102812.72;;;-1.32;100.00
32320;BME280;19080;51.750;5.888;2023-01-29T00:21:31;102732.13;;;-1.76;100.00
32320;BME280;19080;51.750;5.888;2023-01-29T00:23:58;102766.31;;;-1.63;100.00
32320;BME280;19080;51.750;5.888;2023-01-29T00:26:25;102802.69;;;-1.46;100.00
32320;BME280;19080;51.750;5.888;2023-01-29T00:28:52;102806.00;;;-1.38;100.00
32320;BME280;19080;51.750;5.888;2023-01-29T00:31:21;102835.63;;;-1.19;100.00
32320;BME280;19080;51.750;5.888;2023-01-29T00:33:49;102827.38;;;-1.23;100.00
32320;BME280;19080;51.750;5.888;2023-01-29T00:36:17;102825.06;;;-1.20;100.00
32320;BME280;19080;51.750;5.888;2023-01-29T00:38:44;102828.25;;;-1.14;100.00
32320;BME280;19080;51.750;5.888;2023-01-29T00:41:21;102824.16;;;-1.21;100.00
32320;BME280;19080;51.750;5.888;2023-01-29T00:44:08;102692.13;;;-1.95;100.00
32320;BME280;19080;51.750;5.888;2023-01-29T00:46:54;102693.13;;;-1.85;100.00
32320;BME280;19080;51.750;5.888;2023-01-29T00:49:20;102715.50;;;-1.68;100.00
32320;BME280;19080;51.750;5.888;2023-01-29T00:51:47;102607.81;;;-2.25;100.00
32320;BME280;19080;51.750;5.888;2023-01-29T00:54:34;102675.69;;;-1.86;100.00
32320;BME280;19080;51.750;5.888;2023-01-29T00:57:02;102705.88;;;-1.69;100.00
32320;BME280;19080;51.750;5.888;2023-01-29T00:59:30;102728.13;;;-1.54;100.00
32320;BME280;19080;51.750;5.888;2023-01-29T01:01:57;102748.09;;;-1.36;100.00
32320;BME280;19080;51.750;5.888;2023-01-29T01:04:42;102703.50;;;-1.57;100.00
32320;BME280;19080;51.750;5.888;2023-01-29T01:07:08;102772.09;;;-1.29;100.00
32320;BME280;19080;51.750;5.888;2023-01-29T01:09:35;102697.78;;;-1.72;100.00
32320;BME280;19080;51.750;5.888;2023-01-29T01:12:20;102714.25;;;-1.63;100.00
32320;BME280;19080;51.750;5.888;2023-01-29T01:14:47;102739.41;;;-1.45;100.00
32320;BME280;19080;51.750;5.888;2023-01-29T01:17:14;102700.53;;;-1.71;100.00
32320;BME280;19080;51.750;5.888;2023-01-29T01:19:41;102804.59;;;-1.07;100.00
32320;BME280;19080;51.750;5.888;2023-01-29T01:22:08;102775.28;;;-1.23;100.00
32320;BME280;19080;51.750;5.888;2023-01-29T01:24:35;102698.72;;;-1.53;100.00
32320;BME280;19080;51.750;5.888;2023-01-29T01:27:01;102795.03;;;-0.98;100.00
32320;BME280;19080;51.750;5.888;2023-01-29T01:29:28;102726.28;;;-1.27;100.00
32320;BME280;19080;51.750;5.888;2023-01-29T01:31:55;102765.09;;;-0.93;100.00
32320;BME280;19080;51.750;5.888;2023-01-29T01:34:22;102770.09;;;-0.86;100.00
32320;BME280;19080;51.750;5.888;2023-01-29T01:36:49;102762.31;;;-0.76;100.00
32320;BME280;19080;51.750;5.888;2023-01-29T01:39:15;102690.41;;;-0.92;100.00
32320;BME280;19080;51.750;5.888;2023-01-29T01:41:42;102768.22;;;-0.49;100.00
32320;BME280;19080;51.750;5.888;2023-01-29T01:47:14;102703.78;;;-0.79;100.00
32320;BME280;19080;51.750;5.888;2023-01-29T01:49:42;102682.88;;;-0.89;100.00
32320;BME280;19080;51.750;5.888;2023-01-29T01:52:10;102773.22;;;-0.42;100.00
32320;BME280;19080;51.750;5.888;2023-01-29T01:54:39;102704.19;;;-0.75;100.00
32320;BME280;19080;51.750;5.888;2023-01-29T01:57:10;102793.66;;;-0.18;100.00
32320;BME280;19080;51.750;5.888;2023-01-29T01:59:47;102801.78;;;-0.15;100.00
32320;BME280;19080;51.750;5.888;2023-01-29T02:02:16;102784.78;;;-0.20;100.00
32320;BME280;19080;51.750;5.888;2023-01-29T02:05:01;102764.78;;;-0.29;100.00
32320;BME280;19080;51.750;5.888;2023-01-29T02:07:48;102708.44;;;-0.56;100.00
32320;BME280;19080;51.750;5.888;2023-01-29T02:10:38;102729.88;;;-0.50;100.00
32320;BME280;19080;51.750;5.888;2023-01-29T02:13:06;102836.03;;;0.09;100.00
32320;BME280;19080;51.750;5.888;2023-01-29T02:15:33;102800.13;;;-0.04;100.00
32320;BME280;19080;51.750;5.888;2023-01-29T02:18:01;102693.31;;;-0.60;100.00
32320;BME280;19080;51.750;5.888;2023-01-29T02:20:30;102806.63;;;0.01;100.00
32320;BME280;19080;51.750;5.888;2023-01-29T02:23:30;102825.63;;;0.19;100.00
32320;BME280;19080;51.750;5.888;2023-01-29T02:27:14;102810.19;;;0.12;100.00
32320;BME280;19080;51.750;5.888;2023-01-29T02:29:22;102822.25;;;0.30;100.00
32320;BME280;19080;51.750;5.888;2023-01-29T02:32:32;102826.22;;;0.45;100.00
32320;BME280;19080;51.750;5.888;2023-01-29T02:35:14;102772.75;;;0.21;100.00
32320;BME280;19080;51.750;5.888;2023-01-29T02:43:15;102821.53;;;0.61;100.00
32320;BME280;19080;51.750;5.888;2023-01-29T02:45:51;102826.75;;;0.61;100.00
32320;BME280;19080;51.750;5.888;2023-01-29T02:48:22;102787.69;;;0.43;100.00
32320;BME280;19080;51.750;5.888;2023-01-29T02:50:57;102701.19;;;-0.01;100.00
32320;BME280;19080;51.750;5.888;2023-01-29T02:53:35;102781.03;;;0.46;100.00
32320;BME280;19080;51.750;5.888;2023-01-29T02:56:13;102787.56;;;0.51;100.00
32320;BME280;19080;51.750;5.888;2023-01-29T02:58:43;102713.59;;;0.12;100.00
32320;BME280;19080;51.750;5.888;2023-01-29T03:01:16;102746.75;;;0.23;100.00
32320;BME280;19080;51.750;5.888;2023-01-29T03:03:52;102699.50;;;-0.01;100.00
32320;BME280;19080;51.750;5.888;2023-01-29T03:07:12;102818.41;;;0.76;100.00
32320;BME280;19080;51.750;5.888;2023-01-29T03:09:32;102795.94;;;0.68;100.00
32320;BME280;19080;51.750;5.888;2023-01-29T03:12:07;102717.78;;;0.20;100.00
32320;BME280;19080;51.750;5.888;2023-01-29T03:14:46;102703.91;;;0.11;100.00
32320;BME280;19080;51.750;5.888;2023-01-29T03:17:58;102810.06;;;0.70;100.00
32320;BME280;19080;51.750;5.888;2023-01-29T03:20:30;102820.66;;;0.81;100.00
32320;BME280;19080;51.750;5.888;2023-01-29T03:23:03;102698.44;;;0.18;100.00
32320;BME280;19080;51.750;5.888;2023-01-29T03:25:37;102733.34;;;0.39;100.00
32320;BME280;19080;51.750;5.888;2023-01-29T03:28:28;102775.03;;;0.68;100.00
32320;BME280;19080;51.750;5.888;2023-01-29T03:31:16;102772.69;;;0.71;100.00
32320;BME280;19080;51.750;5.888;2023-01-29T03:34:08;102774.63;;;0.73;100.00
32320;BME280;19080;51.750;5.888;2023-01-29T03:36:49;102708.13;;;0.39;100.00
32320;BME280;19080;51.750;5.888;2023-01-29T03:39:22;102727.47;;;0.51;100.00
32320;BME280;19080;51.750;5.888;2023-01-29T03:41:56;102685.66;;;0.31;100.00
32320;BME280;19080;51.750;5.888;2023-01-29T03:44:37;102798.44;;;0.86;100.00
32320;BME280;19080;51.750;5.888;2023-01-29T03:47:26;102805.88;;;0.92;100.00
32320;BME280;19080;51.750;5.888;2023-01-29T03:50:35;102790.97;;;0.91;100.00
32320;BME280;19080;51.750;5.888;2023-01-29T03:56:25;102662.69;;;0.27;100.00
32320;BME280;19080;51.750;5.888;2023-01-29T03:59:03;102727.72;;;0.75;100.00
32320;BME280;19080;51.750;5.888;2023-01-29T04:02:05;102669.34;;;0.44;100.00
32320;BME280;19080;51.750;5.888;2023-01-29T04:04:35;102643.09;;;0.32;100.00
32320;BME280;19080;51.750;5.888;2023-01-29T04:07:16;102764.19;;;0.93;100.00
32320;BME280;19080;51.750;5.888;2023-01-29T04:10:03;102705.25;;;0.67;100.00
32320;BME280;19080;51.750;5.888;2023-01-29T04:12:52;102741.84;;;0.87;100.00
32320;BME280;19080;51.750;5.888;2023-01-29T04:15:22;102739.34;;;0.88;100.00
32320;BME280;19080;51.750;5.888;2023-01-29T04:17:51;102679.91;;;0.55;100.00
32320;BME280;19080;51.750;5.888;2023-01-29T04:20:26;102647.94;;;0.38;100.00
32320;BME280;19080;51.750;5.888;2023-01-29T04:22:53;102716.88;;;0.70;100.00
32320;BME280;19080;51.750;5.888;2023-01-29T04:25:23;102748.09;;;0.89;100.00
32320;BME280;19080;51.750;5.888;2023-01-29T04:28:19;102712.06;;;0.64;100.00
32320;BME280;19080;51.750;5.888;2023-01-29T04:33:40;102739.22;;;0.87;100.00
32320;BME280;19080;51.750;5.888;2023-01-29T04:36:40;102737.66;;;0.89;100.00
32320;BME280;19080;51.750;5.888;2023-01-29T04:41:58;102701.56;;;0.85;100.00
32320;BME280;19080;51.750;5.888;2023-01-29T04:47:35;102703.78;;;1.01;100.00
32320;BME280;19080;51.750;5.888;2023-01-29T04:52:59;102704.69;;;1.01;100.00
32320;BME280;19080;51.750;5.888;2023-01-29T04:55:51;102704.94;;;1.04;100.00
32320;BME280;19080;51.750;5.888;2023-01-29T04:58:38;102608.31;;;0.53;100.00
32320;BME280;19080;51.750;5.888;2023-01-29T05:01:10;102678.69;;;0.92;100.00
32320;BME280;19080;51.750;5.888;2023-01-29T05:03:40;102696.06;;;1.02;100.00
32320;BME280;19080;51.750;5.888;2023-01-29T05:06:09;102681.31;;;0.92;100.00
32320;BME280;19080;51.750;5.888;2023-01-29T05:08:38;102620.47;;;0.63;100.00
32320;BME280;19080;51.750;5.888;2023-01-29T05:11:05;102672.53;;;0.92;100.00
32320;BME280;19080;51.750;5.888;2023-01-29T05:13:33;102695.91;;;1.11;100.00
32320;BME280;19080;51.750;5.888;2023-01-29T05:16:07;102692.63;;;1.13;100.00
32320;BME280;19080;51.750;5.888;2023-01-29T05:18:35;102629.44;;;0.77;100.00
32320;BME280;19080;51.750;5.888;2023-01-29T05:21:05;102585.97;;;0.57;100.00
32320;BME280;19080;51.750;5.888;2023-01-29T05:23:33;102591.84;;;0.64;100.00
32320;BME280;19080;51.750;5.888;2023-01-29T05:25:59;102655.78;;;1.00;100.00
32320;BME280;19080;51.750;5.888;2023-01-29T05:28:26;102642.09;;;0.92;100.00
32320;BME280;19080;51.750;5.888;2023-01-29T05:30:54;102522.94;;;0.32;100.00
32320;BME280;19080;51.750;5.888;2023-01-29T05:33:26;102690.22;;;1.26;100.00
32320;BME280;19080;51.750;5.888;2023-01-29T05:35:54;102682.38;;;1.26;100.00
32320;BME280;19080;51.750;5.888;2023-01-29T05:38:21;102666.59;;;1.15;100.00
32320;BME280;19080;51.750;5.888;2023-01-29T05:40:48;102690.34;;;1.28;100.00
32320;BME280;19080;51.750;5.888;2023-01-29T05:43:17;102691.03;;;1.25;100.00
32320;BME280;19080;51.750;5.888;2023-01-29T05:45:58;102620.00;;;0.89;100.00
32320;BME280;19080;51.750;5.888;2023-01-29T05:48:27;102680.31;;;1.22;100.00
32320;BME280;19080;51.750;5.888;2023-01-29T05:51:01;102705.38;;;1.30;100.00
32320;BME280;19080;51.750;5.888;2023-01-29T05:53:29;102637.78;;;0.93;100.00
32320;BME280;19080;51.750;5.888;2023-01-29T05:55:59;102650.03;;;1.04;100.00
32320;BME280;19080;51.750;5.888;2023-01-29T05:58:26;102595.47;;;0.77;100.00
32320;BME280;19080;51.750;5.888;2023-01-29T06:00:53;102624.16;;;0.97;100.00
32320;BME280;19080;51.750;5.888;2023-01-29T06:03:20;102672.97;;;1.28;100.00
32320;BME280;19080;51.750;5.888;2023-01-29T06:05:46;102710.06;;;1.45;100.00
32320;BME280;19080;51.750;5.888;2023-01-29T06:08:13;102648.66;;;1.19;100.00
32320;BME280;19080;51.750;5.888;2023-01-29T06:10:39;102706.91;;;1.49;100.00
32320;BME280;19080;51.750;5.888;2023-01-29T06:13:06;102726.25;;;1.51;100.00
32320;BME280;19080;51.750;5.888;2023-01-29T06:15:33;102697.75;;;1.44;100.00
32320;BME280;19080;51.750;5.888;2023-01-29T06:17:59;102708.72;;;1.50;100.00
32320;BME280;19080;51.750;5.888;2023-01-29T06:20:26;102700.50;;;1.45;100.00
32320;BME280;19080;51.750;5.888;2023-01-29T06:22:53;102669.69;;;1.31;100.00
32320;BME280;19080;51.750;5.888;2023-01-29T06:25:19;102676.81;;;1.44;100.00
32320;BME280;19080;51.750;5.888;2023-01-29T06:27:49;102657.50;;;1.32;100.00
32320;BME280;19080;51.750;5.888;2023-01-29T06:30:16;102641.31;;;1.25;100.00
32320;BME280;19080;51.750;5.888;2023-01-29T06:32:43;102578.19;;;0.89;100.00
32320;BME280;19080;51.750;5.888;2023-01-29T06:35:10;102597.09;;;0.96;100.00
32320;BME280;19080;51.750;5.888;2023-01-29T06:37:37;102606.50;;;1.05;100.00
32320;BME280;19080;51.750;5.888;2023-01-29T06:40:04;102646.00;;;1.29;100.00
32320;BME280;19080;51.750;5.888;2023-01-29T06:42:30;102519.59;;;0.65;100.00
32320;BME280;19080;51.750;5.888;2023-01-29T06:44:57;102560.91;;;0.91;100.00
32320;BME280;19080;51.750;5.888;2023-01-29T06:47:25;102690.00;;;1.55;100.00
32320;BME280;19080;51.750;5.888;2023-01-29T06:49:52;102680.06;;;1.51;100.00
32320;BME280;19080;51.750;5.888;2023-01-29T06:52:19;102685.66;;;1.56;100.00
32320;BME280;19080;51.750;5.888;2023-01-29T06:54:46;102645.59;;;1.35;100.00
32320;BME280;19080;51.750;5.888;2023-01-29T06:57:12;102645.19;;;1.41;100.00
32320;BME280;19080;51.750;5.888;2023-01-29T06:59:39;102645.19;;;1.41;100.00
32320;BME280;19080;51.750;5.888;2023-01-29T07:02:06;102586.22;;;1.02;100.00
32320;BME280;19080;51.750;5.888;2023-01-29T07:04:32;102591.72;;;1.05;100.00
32320;BME280;19080;51.750;5.888;2023-01-29T07:07:00;102643.41;;;1.29;100.00
32320;BME280;19080;51.750;5.888;2023-01-29T07:09:27;102593.03;;;1.00;100.00
32320;BME280;19080;51.750;5.888;2023-01-29T07:11:54;102680.94;;;1.62;100.00
32320;BME280;19080;51.750;5.888;2023-01-29T07:14:20;102657.88;;;1.36;100.00
32320;BME280;19080;51.750;5.888;2023-01-29T07:16:47;102698.22;;;1.60;100.00
32320;BME280;19080;51.750;5.888;2023-01-29T07:19:14;102587.94;;;1.02;100.00
32320;BME280;19080;51.750;5.888;2023-01-29T07:21:40;102673.16;;;1.42;100.00
32320;BME280;19080;51.750;5.888;2023-01-29T07:24:07;102681.22;;;1.55;100.00
32320;BME280;19080;51.750;5.888;2023-01-29T07:26:34;102590.38;;;1.10;100.00
32320;BME280;19080;51.750;5.888;2023-01-29T07:29:00;102570.53;;;1.02;100.00
32320;BME280;19080;51.750;5.888;2023-01-29T07:31:27;102652.44;;;1.55;100.00
32320;BME280;19080;51.750;5.888;2023-01-29T07:33:54;102659.25;;;1.53;100.00
32320;BME280;19080;51.750;5.888;2023-01-29T07:36:21;102634.97;;;1.44;100.00
32320;BME280;19080;51.750;5.888;2023-01-29T07:38:50;102675.16;;;1.66;100.00
32320;BME280;19080;51.750;5.888;2023-01-29T07:41:16;102669.53;;;1.61;100.00
32320;BME280;19080;51.750;5.888;2023-01-29T07:43:44;102669.91;;;1.66;100.00
32320;BME280;19080;51.750;5.888;2023-01-29T07:46:11;102648.25;;;1.57;100.00
32320;BME280;19080;51.750;5.888;2023-01-29T07:48:38;102598.44;;;1.23;100.00
32320;BME280;19080;51.750;5.888;2023-01-29T07:51:05;102658.41;;;1.64;100.00
32320;BME280;19080;51.750;5.888;2023-01-29T07:53:31;102573.84;;;1.21;100.00
32320;BME280;19080;51.750;5.888;2023-01-29T07:55:58;102660.84;;;1.73;100.00
32320;BME280;19080;51.750;5.888;2023-01-29T07:58:25;102632.78;;;1.60;100.00
32320;BME280;19080;51.750;5.888;2023-01-29T08:00:52;102676.34;;;1.81;100.00
32320;BME280;19080;51.750;5.888;2023-01-29T08:03:19;102622.63;;;1.53;100.00
32320;BME280;19080;51.750;5.888;2023-01-29T08:05:46;102566.25;;;1.24;100.00
32320;BME280;19080;51.750;5.888;2023-01-29T08:08:13;102451.53;;;0.63;100.00
32320;BME280;19080;51.750;5.888;2023-01-29T08:10:40;102588.78;;;1.44;100.00
32320;BME280;19080;51.750;5.888;2023-01-29T08:13:07;102647.19;;;1.77;100.00
32320;BME280;19080;51.750;5.888;2023-01-29T08:15:34;102667.38;;;1.89;100.00
32320;BME280;19080;51.750;5.888;2023-01-29T08:18:04;102650.88;;;1.90;100.00
32320;BME280;19080;51.750;5.888;2023-01-29T08:20:31;102636.19;;;1.92;100.00
32320;BME280;19080;51.750;5.888;2023-01-29T08:22:59;102643.88;;;2.01;100.00
32320;BME280;19080;51.750;5.888;2023-01-29T08:25:27;102633.28;;;2.00;100.00
32320;BME280;19080;51.750;5.888;2023-01-29T08:27:55;102614.69;;;1.96;100.00
32320;BME280;19080;51.750;5.888;2023-01-29T08:30:27;102599.75;;;1.84;100.00
32320;BME280;19080;51.750;5.888;2023-01-29T08:32:55;102638.56;;;2.11;100.00
32320;BME280;19080;51.750;5.888;2023-01-29T08:35:22;102547.44;;;1.62;100.00
32320;BME280;19080;51.750;5.888;2023-01-29T08:37:56;102635.25;;;2.14;100.00
32320;BME280;19080;51.750;5.888;2023-01-29T08:40:26;102548.06;;;1.81;100.00
32320;BME280;19080;51.750;5.888;2023-01-29T08:42:57;102607.94;;;2.22;100.00
32320;BME280;19080;51.750;5.888;2023-01-29T08:45:27;102610.94;;;2.38;100.00
32320;BME280;19080;51.750;5.888;2023-01-29T08:47:54;102513.13;;;1.92;100.00
32320;BME280;19080;51.750;5.888;2023-01-29T08:50:20;102557.38;;;2.23;100.00
32320;BME280;19080;51.750;5.888;2023-01-29T08:52:47;102603.44;;;2.54;100.00
32320;BME280;19080;51.750;5.888;2023-01-29T08:55:14;102502.56;;;2.03;100.00
32320;BME280;19080;51.750;5.888;2023-01-29T08:57:41;102532.53;;;2.18;100.00
32320;BME280;19080;51.750;5.888;2023-01-29T09:00:08;102622.63;;;2.77;100.00
32320;BME280;19080;51.750;5.888;2023-01-29T09:02:36;102552.28;;;2.36;100.00
32320;BME280;19080;51.750;5.888;2023-01-29T09:05:03;102604.84;;;2.73;100.00
32320;BME280;19080;51.750;5.888;2023-01-29T09:07:31;102600.38;;;2.72;100.00
32320;BME280;19080;51.750;5.888;2023-01-29T09:09:57;102519.22;;;2.38;100.00
32320;BME280;19080;51.750;5.888;2023-01-29T09:12:24;102564.47;;;2.71;100.00
32320;BME280;19080;51.750;5.888;2023-01-29T09:14:51;102514.91;;;2.50;100.00
32320;BME280;19080;51.750;5.888;2023-01-29T09:17:18;102612.34;;;3.03;100.00
32320;BME280;19080;51.750;5.888;2023-01-29T09:19:44;102574.72;;;2.91;100.00
32320;BME280;19080;51.750;5.888;2023-01-29T09:22:11;102562.88;;;2.96;100.00
32320;BME280;19080;51.750;5.888;2023-01-29T09:24:41;102594.91;;;3.15;100.00
32320;BME280;19080;51.750;5.888;2023-01-29T09:27:07;102587.81;;;3.14;100.00
32320;BME280;19080;51.750;5.888;2023-01-29T09:29:35;102578.81;;;3.11;100.00
32320;BME280;19080;51.750;5.888;2023-01-29T09:32:03;102609.13;;;3.31;100.00
32320;BME280;19080;51.750;5.888;2023-01-29T09:34:30;102554.44;;;3.00;100.00
32320;BME280;19080;51.750;5.888;2023-01-29T09:36:56;102601.25;;;3.31;100.00
32320;BME280;19080;51.750;5.888;2023-01-29T09:39:23;102528.19;;;3.00;100.00
32320;BME280;19080;51.750;5.888;2023-01-29T09:47:10;102582.31;;;3.35;100.00
32320;BME280;19080;51.750;5.888;2023-01-29T09:49:59;102603.16;;;3.45;100.00
32320;BME280;19080;51.750;5.888;2023-01-29T09:52:28;102616.34;;;3.58;100.00
32320;BME280;19080;51.750;5.888;2023-01-29T09:55:26;102620.19;;;3.63;100.00
32320;BME280;19080;51.750;5.888;2023-01-29T09:57:56;102533.84;;;3.18;100.00
32320;BME280;19080;51.750;5.888;2023-01-29T10:00:34;102521.44;;;3.15;100.00
32320;BME280;19080;51.750;5.888;2023-01-29T10:06:28;102617.66;;;3.76;100.00
32320;BME280;19080;51.750;5.888;2023-01-29T10:21:15;102558.34;;;3.55;100.00
32320;BME280;19080;51.750;5.888;2023-01-29T10:23:47;102590.25;;;3.73;100.00
32320;BME280;19080;51.750;5.888;2023-01-29T10:26:19;102581.63;;;3.62;100.00
32320;BME280;19080;51.750;5.888;2023-01-29T10:28:48;102516.69;;;3.35;100.00
32320;BME280;19080;51.750;5.888;2023-01-29T10:33:53;102514.59;;;3.42;100.00
32320;BME280;19080;51.750;5.888;2023-01-29T10:36:44;102527.28;;;3.61;100.00
32320;BME280;19080;51.750;5.888;2023-01-29T10:39:15;102566.50;;;3.96;100.00
32320;BME280;19080;51.750;5.888;2023-01-29T10:44:36;102592.56;;;4.18;100.00
32320;BME280;19080;51.750;5.888;2023-01-29T10:55:42;102551.69;;;4.10;100.00
32320;BME280;19080;51.750;5.888;2023-01-29T11:01:03;102514.56;;;3.92;100.00
32320;BME280;19080;51.750;5.888;2023-01-29T11:03:31;102548.69;;;4.17;100.00
32320;BME280;19080;51.750;5.888;2023-01-29T11:06:16;102511.25;;;4.08;100.00
32320;BME280;19080;51.750;5.888;2023-01-29T11:11:51;102453.72;;;3.86;100.00
32320;BME280;19080;51.750;5.888;2023-01-29T11:14:23;102505.00;;;4.19;100.00
32320;BME280;19080;51.750;5.888;2023-01-29T11:16:52;102450.81;;;3.95;100.00
32320;BME280;19080;51.750;5.888;2023-01-29T11:19:35;102501.78;;;4.23;100.00
32320;BME280;19080;51.750;5.888;2023-01-29T11:22:02;102441.00;;;3.92;100.00
32320;BME280;19080;51.750;5.888;2023-01-29T11:24:29;102497.16;;;4.32;100.00
32320;BME280;19080;51.750;5.888;2023-01-29T11:26:58;102441.34;;;4.10;100.00
32320;BME280;19080;51.750;5.888;2023-01-29T11:29:40;102511.13;;;4.57;100.00
32320;BME280;19080;51.750;5.888;2023-01-29T11:34:57;102503.22;;;4.71;100.00
32320;BME280;19080;51.750;5.888;2023-01-29T11:39:57;102403.53;;;4.34;100.00
32320;BME280;19080;51.750;5.888;2023-01-29T11:42:31;102474.47;;;4.87;100.00
32320;BME280;19080;51.750;5.888;2023-01-29T11:45:00;102361.16;;;4.30;100.00
32320;BME280;19080;51.750;5.888;2023-01-29T11:47:28;102413.19;;;4.62;100.00
32320;BME280;19080;51.750;5.888;2023-01-29T11:49:57;102383.50;;;4.49;100.00
32320;BME280;19080;51.750;5.888;2023-01-29T11:52:39;102468.47;;;5.03;100.00
32320;BME280;19080;51.750;5.888;2023-01-29T11:55:16;102427.31;;;4.90;100.00
32320;BME280;19080;51.750;5.888;2023-01-29T11:57:49;102393.16;;;4.64;100.00
32320;BME280;19080;51.750;5.888;2023-01-29T12:00:26;102362.34;;;4.48;100.00
32320;BME280;19080;51.750;5.888;2023-01-29T12:02:56;102350.25;;;4.37;100.00
32320;BME280;19080;51.750;5.888;2023-01-29T12:05:24;102437.31;;;4.96;100.00
32320;BME280;19080;51.750;5.888;2023-01-29T12:07:54;102436.78;;;5.01;100.00
32320;BME280;19080;51.750;5.888;2023-01-29T12:15:41;102324.06;;;4.38;100.00
32320;BME280;19080;51.750;5.888;2023-01-29T12:20:46;102322.75;;;4.32;100.00
32320;BME280;19080;51.750;5.888;2023-01-29T12:26:09;102282.94;;;4.25;100.00
32320;BME280;19080;51.750;5.888;2023-01-29T12:28:40;102399.38;;;4.92;100.00
32320;BME280;19080;51.750;5.888;2023-01-29T12:31:28;102350.09;;;4.62;100.00
32320;BME280;19080;51.750;5.888;2023-01-29T12:39:57;102322.16;;;4.64;100.00
32320;BME280;19080;51.750;5.888;2023-01-29T12:42:24;102275.91;;;4.39;100.00
32320;BME280;19080;51.750;5.888;2023-01-29T12:44:53;102352.97;;;4.79;100.00
32320;BME280;19080;51.750;5.888;2023-01-29T12:50:01;102365.97;;;4.91;100.00
32320;BME280;19080;51.750;5.888;2023-01-29T12:53:05;102358.69;;;4.87;100.00
32320;BME280;19080;51.750;5.888;2023-01-29T12:55:42;102258.19;;;4.22;100.00
32320;BME280;19080;51.750;5.888;2023-01-29T13:00:56;102343.59;;;4.70;100.00
32320;BME280;19080;51.750;5.888;2023-01-29T13:03:33;102345.41;;;4.71;100.00
32320;BME280;19080;51.750;5.888;2023-01-29T13:06:08;102260.91;;;4.23;100.00
32320;BME280;19080;51.750;5.888;2023-01-29T13:08:41;102303.59;;;4.47;100.00
32320;BME280;19080;51.750;5.888;2023-01-29T13:11:16;102251.09;;;4.21;100.00
32320;BME280;19080;51.750;5.888;2023-01-29T13:13:51;102237.19;;;4.09;100.00
32320;BME280;19080;51.750;5.888;2023-01-29T13:16:29;102326.91;;;4.69;100.00
32320;BME280;19080;51.750;5.888;2023-01-29T13:21:50;102235.19;;;4.33;100.00
32320;BME280;19080;51.750;5.888;2023-01-29T13:24:21;102295.81;;;4.77;100.00
32320;BME280;19080;51.750;5.888;2023-01-29T13:26:49;102218.63;;;4.34;100.00
32320;BME280;19080;51.750;5.888;2023-01-29T13:29:22;102315.16;;;4.92;100.00
32320;BME280;19080;51.750;5.888;2023-01-29T13:31:50;102250.97;;;4.61;100.00
32320;BME280;19080;51.750;5.888;2023-01-29T13:34:20;102303.94;;;4.95;100.00
32320;BME280;19080;51.750;5.888;2023-01-29T13:36:54;102203.22;;;4.40;100.00
32320;BME280;19080;51.750;5.888;2023-01-29T13:41:51;102299.75;;;4.98;100.00
32320;BME280;19080;51.750;5.888;2023-01-29T13:44:45;102250.72;;;4.71;100.00
32320;BME280;19080;51.750;5.888;2023-01-29T13:47:09;102202.06;;;4.49;100.00
32320;BME280;19080;51.750;5.888;2023-01-29T13:49:39;102248.91;;;4.70;100.00
32320;BME280;19080;51.750;5.888;2023-01-29T13:54:56;102273.06;;;4.92;100.00
32320;BME280;19080;51.750;5.888;2023-01-29T14:10:29;102170.88;;;4.41;100.00
32320;BME280;19080;51.750;5.888;2023-01-29T14:15:32;102272.06;;;4.90;100.00
32320;BME280;19080;51.750;5.888;2023-01-29T14:18:19;102249.28;;;4.76;100.00
32320;BME280;19080;51.750;5.888;2023-01-29T14:23:29;102157.06;;;4.30;100.00
32320;BME280;19080;51.750;5.888;2023-01-29T14:25:59;102234.88;;;4.84;100.00
32320;BME280;19080;51.750;5.888;2023-01-29T14:28:28;102122.81;;;4.43;100.00
32320;BME280;19080;51.750;5.888;2023-01-29T14:30:56;102158.94;;;4.61;100.00
32320;BME280;19080;51.750;5.888;2023-01-29T14:33:35;102156.75;;;4.53;100.00
32320;BME280;19080;51.750;5.888;2023-01-29T14:36:10;102220.72;;;4.97;100.00
32320;BME280;19080;51.750;5.888;2023-01-29T14:38:39;102218.81;;;4.94;100.00
32320;BME280;19080;51.750;5.888;2023-01-29T14:41:31;102119.19;;;4.41;100.00
32320;BME280;19080;51.750;5.888;2023-01-29T14:47:03;102237.06;;;5.06;100.00
32320;BME280;19080;51.750;5.888;2023-01-29T14:52:17;102203.84;;;4.78;100.00
32320;BME280;19080;51.750;5.888;2023-01-29T14:54:46;102238.41;;;4.99;100.00
32320;BME280;19080;51.750;5.888;2023-01-29T14:57:15;102183.25;;;4.71;100.00
32320;BME280;19080;51.750;5.888;2023-01-29T15:02:20;102122.47;;;4.37;100.00
32320;BME280;19080;51.750;5.888;2023-01-29T15:04:50;102226.81;;;4.96;100.00
32320;BME280;19080;51.750;5.888;2023-01-29T15:07:27;102119.81;;;4.37;100.00
32320;BME280;19080;51.750;5.888;2023-01-29T15:12:54;102124.00;;;4.48;100.00
32320;BME280;19080;51.750;5.888;2023-01-29T15:16:16;102217.91;;;4.94;100.00
32320;BME280;19080;51.750;5.888;2023-01-29T15:18:41;102163.09;;;4.57;100.00
32320;BME280;19080;51.750;5.888;2023-01-29T15:21:13;102151.47;;;4.53;100.00
32320;BME280;19080;51.750;5.888;2023-01-29T15:23:41;102199.56;;;4.80;100.00